Skip Navigation Links Skip Navigation Links

Current Weather

Eureka, Nunavut

For information only: do not use for flight planning or navigation.
Latest weather
Observation time Thursday, February 22, 2018 8:00 PM CST
Local time Thursday, February 22, 2018 8:33 PM CST
Flight conditions Visual Meteorological Conditions
Winds
Wind direction Southeast (140°)
Wind speed 14 mph
Visibility 15 mi.
Sky condition
Ceiling 18,000 ft. broken clouds
Cloud layer broken clouds 18,000 ft.
Temperature -33°F
Dewpoint -40°F
Altimeter 29.28 in.Hg
Derived measurements
Relative humidity 66%
Wind chill -60°F
Density altitude -5983 ft.
Sea-level pressure 29.29 in.Hg
METAR CWEU 230200Z 14012KT 15SM BKN180 M36/M40 A2928 RMK AC5 SLP918

Settings

Location code

InnerDrive.Weather 4.0.6615.0 Release CLR 4.0.30319.42000
Copyright ©2018 Inner Drive Technology. All rights reserved. Portions Copyright ©1986-2018 David Braverman.

Find weather

Site navigation


Skip Navigation Links

Place info

Page info

PayPal - The safer, easier way to pay online!

Return home.

Copyright ©2018 Inner Drive Technology. Purveyors of fine, hand-crafted computer software. Page printed 2018-02-23T02:33:38 UTC.